sensor_id;sensor_type;location;lat;lon;timestamp;P1;durP1;ratioP1;P2;durP2;ratioP2
37205;SDS011;23099;42.636;23.198;2023-05-21T00:02:02;17.23;;;7.88;;
37205;SDS011;23099;42.636;23.198;2023-05-21T00:04:29;13.80;;;8.27;;
37205;SDS011;23099;42.636;23.198;2023-05-21T00:06:57;12.30;;;7.07;;
37205;SDS011;23099;42.636;23.198;2023-05-21T00:09:24;16.42;;;8.02;;
37205;SDS011;23099;42.636;23.198;2023-05-21T00:11:53;15.20;;;8.25;;
37205;SDS011;23099;42.636;23.198;2023-05-21T00:14:19;15.52;;;7.93;;
37205;SDS011;23099;42.636;23.198;2023-05-21T00:16:46;17.08;;;8.05;;
37205;SDS011;23099;42.636;23.198;2023-05-21T00:19:13;15.93;;;8.50;;
37205;SDS011;23099;42.636;23.198;2023-05-21T00:21:40;13.90;;;7.68;;
37205;SDS011;23099;42.636;23.198;2023-05-21T00:24:06;15.23;;;8.75;;
37205;SDS011;23099;42.636;23.198;2023-05-21T00:26:33;13.88;;;7.45;;
37205;SDS011;23099;42.636;23.198;2023-05-21T00:29:01;16.60;;;7.53;;
37205;SDS011;23099;42.636;23.198;2023-05-21T00:31:28;14.32;;;7.28;;
37205;SDS011;23099;42.636;23.198;2023-05-21T00:33:56;14.40;;;7.03;;
37205;SDS011;23099;42.636;23.198;2023-05-21T00:36:22;14.52;;;7.40;;
37205;SDS011;23099;42.636;23.198;2023-05-21T00:38:49;13.63;;;7.28;;
37205;SDS011;23099;42.636;23.198;2023-05-21T00:41:17;15.07;;;7.05;;
37205;SDS011;23099;42.636;23.198;2023-05-21T00:43:44;15.75;;;8.98;;
37205;SDS011;23099;42.636;23.198;2023-05-21T00:46:12;13.38;;;7.90;;
37205;SDS011;23099;42.636;23.198;2023-05-21T00:48:42;21.70;;;12.45;;
37205;SDS011;23099;42.636;23.198;2023-05-21T00:51:10;19.35;;;8.55;;
37205;SDS011;23099;42.636;23.198;2023-05-21T00:53:37;15.13;;;7.72;;
37205;SDS011;23099;42.636;23.198;2023-05-21T00:56:04;13.32;;;6.95;;
37205;SDS011;23099;42.636;23.198;2023-05-21T00:58:32;13.68;;;8.38;;
37205;SDS011;23099;42.636;23.198;2023-05-21T01:01:00;13.73;;;7.63;;
37205;SDS011;23099;42.636;23.198;2023-05-21T01:03:29;13.82;;;7.90;;
37205;SDS011;23099;42.636;23.198;2023-05-21T01:06:03;14.35;;;7.32;;
37205;SDS011;23099;42.636;23.198;2023-05-21T01:08:30;15.70;;;8.25;;
37205;SDS011;23099;42.636;23.198;2023-05-21T01:10:59;13.73;;;6.90;;
37205;SDS011;23099;42.636;23.198;2023-05-21T01:13:27;14.48;;;7.22;;
37205;SDS011;23099;42.636;23.198;2023-05-21T01:15:55;14.30;;;7.28;;
37205;SDS011;23099;42.636;23.198;2023-05-21T01:18:23;18.10;;;8.13;;
37205;SDS011;23099;42.636;23.198;2023-05-21T01:20:51;15.02;;;7.78;;
37205;SDS011;23099;42.636;23.198;2023-05-21T01:23:20;13.77;;;7.70;;
37205;SDS011;23099;42.636;23.198;2023-05-21T01:25:47;20.02;;;8.77;;
37205;SDS011;23099;42.636;23.198;2023-05-21T01:28:14;13.23;;;7.28;;
37205;SDS011;23099;42.636;23.198;2023-05-21T01:30:40;14.07;;;7.65;;
37205;SDS011;23099;42.636;23.198;2023-05-21T01:33:10;19.67;;;8.15;;
37205;SDS011;23099;42.636;23.198;2023-05-21T01:35:43;13.45;;;7.50;;
37205;SDS011;23099;42.636;23.198;2023-05-21T01:38:16;12.02;;;6.82;;
37205;SDS011;23099;42.636;23.198;2023-05-21T01:40:49;15.07;;;8.00;;
37205;SDS011;23099;42.636;23.198;2023-05-21T01:43:18;13.15;;;7.22;;
37205;SDS011;23099;42.636;23.198;2023-05-21T01:45:46;18.37;;;7.53;;
37205;SDS011;23099;42.636;23.198;2023-05-21T01:48:13;22.33;;;8.00;;
37205;SDS011;23099;42.636;23.198;2023-05-21T01:50:41;15.15;;;8.27;;
37205;SDS011;23099;42.636;23.198;2023-05-21T01:55:36;13.30;;;7.18;;
37205;SDS011;23099;42.636;23.198;2023-05-21T01:58:07;13.45;;;6.85;;
37205;SDS011;23099;42.636;23.198;2023-05-21T02:00:34;13.80;;;7.38;;
37205;SDS011;23099;42.636;23.198;2023-05-21T02:03:01;14.25;;;7.90;;
37205;SDS011;23099;42.636;23.198;2023-05-21T02:05:28;16.77;;;8.55;;
37205;SDS011;23099;42.636;23.198;2023-05-21T02:07:54;15.27;;;7.55;;
37205;SDS011;23099;42.636;23.198;2023-05-21T02:10:23;13.40;;;7.72;;
37205;SDS011;23099;42.636;23.198;2023-05-21T02:12:50;15.95;;;7.72;;
37205;SDS011;23099;42.636;23.198;2023-05-21T02:15:18;15.20;;;7.57;;
37205;SDS011;23099;42.636;23.198;2023-05-21T02:17:46;13.13;;;7.38;;
37205;SDS011;23099;42.636;23.198;2023-05-21T02:20:15;24.98;;;12.82;;
37205;SDS011;23099;42.636;23.198;2023-05-21T02:22:43;117.80;;;53.33;;
37205;SDS011;23099;42.636;23.198;2023-05-21T02:25:12;43.80;;;21.15;;
37205;SDS011;23099;42.636;23.198;2023-05-21T02:27:40;24.63;;;12.32;;
37205;SDS011;23099;42.636;23.198;2023-05-21T02:30:09;16.60;;;10.13;;
37205;SDS011;23099;42.636;23.198;2023-05-21T02:35:06;14.60;;;8.15;;
37205;SDS011;23099;42.636;23.198;2023-05-21T02:37:34;12.38;;;7.35;;
37205;SDS011;23099;42.636;23.198;2023-05-21T02:40:02;14.13;;;7.47;;
37205;SDS011;23099;42.636;23.198;2023-05-21T02:42:30;15.02;;;8.68;;
37205;SDS011;23099;42.636;23.198;2023-05-21T02:44:58;17.15;;;7.65;;
37205;SDS011;23099;42.636;23.198;2023-05-21T02:47:24;17.08;;;8.15;;
37205;SDS011;23099;42.636;23.198;2023-05-21T02:49:53;15.15;;;7.97;;
37205;SDS011;23099;42.636;23.198;2023-05-21T02:52:20;12.10;;;7.55;;
37205;SDS011;23099;42.636;23.198;2023-05-21T02:54:47;15.73;;;9.00;;
37205;SDS011;23099;42.636;23.198;2023-05-21T02:57:14;15.88;;;8.82;;
37205;SDS011;23099;42.636;23.198;2023-05-21T02:59:42;14.77;;;8.43;;
37205;SDS011;23099;42.636;23.198;2023-05-21T03:02:09;14.27;;;8.40;;
37205;SDS011;23099;42.636;23.198;2023-05-21T03:04:35;12.38;;;7.85;;
37205;SDS011;23099;42.636;23.198;2023-05-21T03:07:04;13.95;;;7.72;;
37205;SDS011;23099;42.636;23.198;2023-05-21T03:09:34;15.88;;;7.95;;
37205;SDS011;23099;42.636;23.198;2023-05-21T03:12:00;29.67;;;14.55;;
37205;SDS011;23099;42.636;23.198;2023-05-21T03:14:27;16.95;;;10.50;;
37205;SDS011;23099;42.636;23.198;2023-05-21T03:16:54;15.95;;;8.20;;
37205;SDS011;23099;42.636;23.198;2023-05-21T03:19:20;14.60;;;8.60;;
37205;SDS011;23099;42.636;23.198;2023-05-21T03:21:48;15.02;;;8.60;;
37205;SDS011;23099;42.636;23.198;2023-05-21T03:24:17;18.13;;;8.18;;
37205;SDS011;23099;42.636;23.198;2023-05-21T03:26:43;16.67;;;8.30;;
37205;SDS011;23099;42.636;23.198;2023-05-21T03:31:38;16.80;;;8.43;;
37205;SDS011;23099;42.636;23.198;2023-05-21T03:34:05;13.77;;;8.02;;
37205;SDS011;23099;42.636;23.198;2023-05-21T03:36:32;14.00;;;7.72;;
37205;SDS011;23099;42.636;23.198;2023-05-21T03:38:59;16.90;;;8.02;;
37205;SDS011;23099;42.636;23.198;2023-05-21T03:41:27;17.70;;;8.43;;
37205;SDS011;23099;42.636;23.198;2023-05-21T03:43:54;14.57;;;8.20;;
37205;SDS011;23099;42.636;23.198;2023-05-21T03:46:20;16.77;;;7.95;;
37205;SDS011;23099;42.636;23.198;2023-05-21T03:48:47;14.93;;;7.95;;
37205;SDS011;23099;42.636;23.198;2023-05-21T03:51:14;13.23;;;7.85;;
37205;SDS011;23099;42.636;23.198;2023-05-21T03:53:42;15.67;;;8.53;;
37205;SDS011;23099;42.636;23.198;2023-05-21T03:56:08;16.27;;;8.48;;
37205;SDS011;23099;42.636;23.198;2023-05-21T03:58:36;17.63;;;8.20;;
37205;SDS011;23099;42.636;23.198;2023-05-21T04:01:03;14.40;;;7.57;;
37205;SDS011;23099;42.636;23.198;2023-05-21T04:03:30;16.67;;;7.93;;
37205;SDS011;23099;42.636;23.198;2023-05-21T04:05:59;15.32;;;7.95;;
37205;SDS011;23099;42.636;23.198;2023-05-21T04:08:26;17.85;;;8.57;;
37205;SDS011;23099;42.636;23.198;2023-05-21T04:10:52;12.48;;;7.47;;
37205;SDS011;23099;42.636;23.198;2023-05-21T04:13:19;19.15;;;9.90;;
37205;SDS011;23099;42.636;23.198;2023-05-21T04:15:47;28.10;;;13.88;;
37205;SDS011;23099;42.636;23.198;2023-05-21T04:18:14;19.10;;;9.90;;
37205;SDS011;23099;42.636;23.198;2023-05-21T04:20:41;18.30;;;10.15;;
37205;SDS011;23099;42.636;23.198;2023-05-21T04:23:08;14.25;;;9.32;;
37205;SDS011;23099;42.636;23.198;2023-05-21T04:25:35;15.15;;;9.23;;
37205;SDS011;23099;42.636;23.198;2023-05-21T04:28:02;16.92;;;8.70;;
37205;SDS011;23099;42.636;23.198;2023-05-21T04:30:29;15.50;;;9.48;;
37205;SDS011;23099;42.636;23.198;2023-05-21T04:33:01;20.77;;;10.27;;
37205;SDS011;23099;42.636;23.198;2023-05-21T04:37:55;17.52;;;9.85;;
37205;SDS011;23099;42.636;23.198;2023-05-21T04:40:22;17.42;;;10.35;;
37205;SDS011;23099;42.636;23.198;2023-05-21T04:42:49;19.13;;;10.10;;
37205;SDS011;23099;42.636;23.198;2023-05-21T04:45:16;16.70;;;9.98;;
37205;SDS011;23099;42.636;23.198;2023-05-21T04:47:42;16.05;;;9.93;;
37205;SDS011;23099;42.636;23.198;2023-05-21T04:50:11;18.45;;;10.43;;
37205;SDS011;23099;42.636;23.198;2023-05-21T04:52:38;17.60;;;9.60;;
37205;SDS011;23099;42.636;23.198;2023-05-21T04:55:05;16.83;;;10.20;;
37205;SDS011;23099;42.636;23.198;2023-05-21T04:57:32;18.30;;;10.32;;
37205;SDS011;23099;42.636;23.198;2023-05-21T04:59:59;16.85;;;10.68;;
37205;SDS011;23099;42.636;23.198;2023-05-21T05:02:28;19.73;;;10.93;;
37205;SDS011;23099;42.636;23.198;2023-05-21T05:04:54;16.27;;;9.32;;
37205;SDS011;23099;42.636;23.198;2023-05-21T05:07:22;18.33;;;9.25;;
37205;SDS011;23099;42.636;23.198;2023-05-21T05:09:49;20.48;;;10.20;;
37205;SDS011;23099;42.636;23.198;2023-05-21T05:12:15;13.75;;;8.27;;
37205;SDS011;23099;42.636;23.198;2023-05-21T05:14:42;24.45;;;12.05;;
37205;SDS011;23099;42.636;23.198;2023-05-21T05:17:09;21.48;;;10.90;;
37205;SDS011;23099;42.636;23.198;2023-05-21T05:19:39;16.90;;;9.25;;
37205;SDS011;23099;42.636;23.198;2023-05-21T05:22:06;14.85;;;8.57;;
37205;SDS011;23099;42.636;23.198;2023-05-21T05:24:34;13.25;;;8.77;;
37205;SDS011;23099;42.636;23.198;2023-05-21T05:27:01;13.63;;;8.45;;
37205;SDS011;23099;42.636;23.198;2023-05-21T05:29:27;15.57;;;8.90;;
37205;SDS011;23099;42.636;23.198;2023-05-21T05:31:54;15.38;;;8.70;;
37205;SDS011;23099;42.636;23.198;2023-05-21T05:34:21;14.82;;;8.25;;
37205;SDS011;23099;42.636;23.198;2023-05-21T05:36:47;18.77;;;8.55;;
37205;SDS011;23099;42.636;23.198;2023-05-21T05:39:14;16.42;;;8.30;;
37205;SDS011;23099;42.636;23.198;2023-05-21T05:41:42;15.18;;;7.60;;
37205;SDS011;23099;42.636;23.198;2023-05-21T05:44:08;17.48;;;7.90;;
37205;SDS011;23099;42.636;23.198;2023-05-21T05:46:35;15.82;;;7.90;;
37205;SDS011;23099;42.636;23.198;2023-05-21T05:49:02;14.23;;;7.53;;
37205;SDS011;23099;42.636;23.198;2023-05-21T05:51:29;16.27;;;7.72;;
37205;SDS011;23099;42.636;23.198;2023-05-21T05:53:55;14.77;;;7.75;;
37205;SDS011;23099;42.636;23.198;2023-05-21T05:56:22;19.20;;;8.40;;
37205;SDS011;23099;42.636;23.198;2023-05-21T05:58:50;16.27;;;7.55;;
37205;SDS011;23099;42.636;23.198;2023-05-21T06:01:17;14.20;;;6.93;;
37205;SDS011;23099;42.636;23.198;2023-05-21T06:03:44;14.05;;;6.10;;
37205;SDS011;23099;42.636;23.198;2023-05-21T06:06:11;16.38;;;5.72;;
37205;SDS011;23099;42.636;23.198;2023-05-21T06:08:37;15.45;;;5.43;;
37205;SDS011;23099;42.636;23.198;2023-05-21T06:11:04;12.45;;;4.97;;
37205;SDS011;23099;42.636;23.198;2023-05-21T06:13:31;13.90;;;5.78;;
37205;SDS011;23099;42.636;23.198;2023-05-21T06:15:59;10.50;;;4.80;;
37205;SDS011;23099;42.636;23.198;2023-05-21T06:18:26;8.77;;;4.13;;
37205;SDS011;23099;42.636;23.198;2023-05-21T06:20:52;10.63;;;3.90;;
37205;SDS011;23099;42.636;23.198;2023-05-21T06:23:19;14.90;;;5.00;;
37205;SDS011;23099;42.636;23.198;2023-05-21T06:25:46;16.23;;;6.43;;
37205;SDS011;23099;42.636;23.198;2023-05-21T06:28:13;15.13;;;5.13;;
37205;SDS011;23099;42.636;23.198;2023-05-21T06:30:39;15.13;;;5.13;;
37205;SDS011;23099;42.636;23.198;2023-05-21T06:33:07;11.57;;;3.70;;
37205;SDS011;23099;42.636;23.198;2023-05-21T06:35:35;12.20;;;3.45;;
37205;SDS011;23099;42.636;23.198;2023-05-21T06:38:03;12.68;;;3.63;;
37205;SDS011;23099;42.636;23.198;2023-05-21T06:40:30;13.10;;;4.65;;
37205;SDS011;23099;42.636;23.198;2023-05-21T06:42:57;10.05;;;3.60;;
37205;SDS011;23099;42.636;23.198;2023-05-21T06:45:24;9.48;;;4.00;;
37205;SDS011;23099;42.636;23.198;2023-05-21T06:47:50;9.77;;;4.38;;
37205;SDS011;23099;42.636;23.198;2023-05-21T06:50:18;9.63;;;3.38;;
37205;SDS011;23099;42.636;23.198;2023-05-21T06:52:45;11.23;;;3.63;;
37205;SDS011;23099;42.636;23.198;2023-05-21T06:55:12;10.20;;;3.13;;
37205;SDS011;23099;42.636;23.198;2023-05-21T06:57:38;12.48;;;3.72;;
37205;SDS011;23099;42.636;23.198;2023-05-21T07:00:05;14.13;;;4.50;;
37205;SDS011;23099;42.636;23.198;2023-05-21T07:02:34;8.90;;;3.28;;
37205;SDS011;23099;42.636;23.198;2023-05-21T07:05:01;11.63;;;3.60;;
37205;SDS011;23099;42.636;23.198;2023-05-21T07:07:29;9.75;;;3.30;;
37205;SDS011;23099;42.636;23.198;2023-05-21T07:09:56;10.02;;;3.70;;
37205;SDS011;23099;42.636;23.198;2023-05-21T07:12:22;8.80;;;2.90;;
37205;SDS011;23099;42.636;23.198;2023-05-21T07:14:49;7.03;;;3.40;;
37205;SDS011;23099;42.636;23.198;2023-05-21T07:17:16;13.32;;;3.78;;
37205;SDS011;23099;42.636;23.198;2023-05-21T07:19:42;12.23;;;3.50;;
37205;SDS011;23099;42.636;23.198;2023-05-21T07:22:09;9.95;;;3.55;;
37205;SDS011;23099;42.636;23.198;2023-05-21T07:24:38;12.02;;;3.60;;
37205;SDS011;23099;42.636;23.198;2023-05-21T07:27:04;12.35;;;3.53;;
37205;SDS011;23099;42.636;23.198;2023-05-21T07:29:31;9.02;;;3.38;;
37205;SDS011;23099;42.636;23.198;2023-05-21T07:31:58;8.00;;;2.92;;
37205;SDS011;23099;42.636;23.198;2023-05-21T07:34:25;10.02;;;3.45;;
37205;SDS011;23099;42.636;23.198;2023-05-21T07:36:52;9.70;;;3.20;;
37205;SDS011;23099;42.636;23.198;2023-05-21T07:39:18;10.13;;;2.95;;
37205;SDS011;23099;42.636;23.198;2023-05-21T07:41:46;12.60;;;4.05;;
37205;SDS011;23099;42.636;23.198;2023-05-21T07:44:13;12.60;;;3.35;;
37205;SDS011;23099;42.636;23.198;2023-05-21T07:46:40;10.75;;;3.60;;
37205;SDS011;23099;42.636;23.198;2023-05-21T07:49:06;9.77;;;3.17;;
37205;SDS011;23099;42.636;23.198;2023-05-21T07:54:01;6.80;;;2.78;;
37205;SDS011;23099;42.636;23.198;2023-05-21T07:56:28;9.77;;;2.90;;
37205;SDS011;23099;42.636;23.198;2023-05-21T07:58:57;8.35;;;3.33;;
37205;SDS011;23099;42.636;23.198;2023-05-21T08:01:24;10.75;;;3.00;;
37205;SDS011;23099;42.636;23.198;2023-05-21T08:03:53;9.30;;;3.28;;
37205;SDS011;23099;42.636;23.198;2023-05-21T08:06:20;7.95;;;2.90;;
37205;SDS011;23099;42.636;23.198;2023-05-21T08:08:48;10.40;;;2.90;;
37205;SDS011;23099;42.636;23.198;2023-05-21T08:11:15;8.27;;;3.00;;
37205;SDS011;23099;42.636;23.198;2023-05-21T08:13:41;7.55;;;2.95;;
37205;SDS011;23099;42.636;23.198;2023-05-21T08:16:09;12.13;;;3.03;;
37205;SDS011;23099;42.636;23.198;2023-05-21T08:18:36;9.20;;;2.80;;
37205;SDS011;23099;42.636;23.198;2023-05-21T08:21:03;12.32;;;2.88;;
37205;SDS011;23099;42.636;23.198;2023-05-21T08:23:30;9.52;;;3.20;;
37205;SDS011;23099;42.636;23.198;2023-05-21T08:25:56;6.63;;;2.85;;
37205;SDS011;23099;42.636;23.198;2023-05-21T08:28:23;9.82;;;3.20;;
37205;SDS011;23099;42.636;23.198;2023-05-21T08:33:19;12.90;;;2.97;;
37205;SDS011;23099;42.636;23.198;2023-05-21T08:35:46;11.43;;;3.22;;
37205;SDS011;23099;42.636;23.198;2023-05-21T08:38:12;8.32;;;2.70;;
37205;SDS011;23099;42.636;23.198;2023-05-21T08:40:40;7.97;;;2.63;;
37205;SDS011;23099;42.636;23.198;2023-05-21T08:43:07;7.80;;;2.88;;
37205;SDS011;23099;42.636;23.198;2023-05-21T08:45:38;8.70;;;2.67;;
37205;SDS011;23099;42.636;23.198;2023-05-21T08:48:08;13.65;;;2.80;;
37205;SDS011;23099;42.636;23.198;2023-05-21T08:53:04;6.45;;;2.20;;
37205;SDS011;23099;42.636;23.198;2023-05-21T08:55:31;10.13;;;2.38;;
37205;SDS011;23099;42.636;23.198;2023-05-21T08:58:00;9.10;;;2.72;;
37205;SDS011;23099;42.636;23.198;2023-05-21T09:00:29;10.10;;;2.85;;
37205;SDS011;23099;42.636;23.198;2023-05-21T09:02:57;8.93;;;2.50;;
37205;SDS011;23099;42.636;23.198;2023-05-21T09:05:25;11.32;;;2.72;;
37205;SDS011;23099;42.636;23.198;2023-05-21T09:07:54;11.00;;;3.20;;
37205;SDS011;23099;42.636;23.198;2023-05-21T09:10:31;6.88;;;2.47;;
37205;SDS011;23099;42.636;23.198;2023-05-21T09:13:01;7.28;;;2.53;;
37205;SDS011;23099;42.636;23.198;2023-05-21T09:15:28;7.57;;;2.53;;
37205;SDS011;23099;42.636;23.198;2023-05-21T09:17:55;8.00;;;2.53;;
37205;SDS011;23099;42.636;23.198;2023-05-21T09:20:23;9.27;;;2.70;;
37205;SDS011;23099;42.636;23.198;2023-05-21T09:22:50;9.63;;;3.42;;
37205;SDS011;23099;42.636;23.198;2023-05-21T09:25:21;8.87;;;2.73;;
37205;SDS011;23099;42.636;23.198;2023-05-21T09:27:52;8.50;;;2.45;;
37205;SDS011;23099;42.636;23.198;2023-05-21T09:30:18;8.02;;;3.00;;
37205;SDS011;23099;42.636;23.198;2023-05-21T09:32:45;8.32;;;2.50;;
37205;SDS011;23099;42.636;23.198;2023-05-21T09:35:18;9.95;;;2.92;;
37205;SDS011;23099;42.636;23.198;2023-05-21T09:37:46;11.32;;;2.75;;
37205;SDS011;23099;42.636;23.198;2023-05-21T09:40:14;8.40;;;2.38;;
37205;SDS011;23099;42.636;23.198;2023-05-21T09:42:44;8.73;;;2.28;;
37205;SDS011;23099;42.636;23.198;2023-05-21T09:45:16;7.40;;;2.47;;
37205;SDS011;23099;42.636;23.198;2023-05-21T09:47:44;8.93;;;2.05;;
37205;SDS011;23099;42.636;23.198;2023-05-21T09:50:11;8.38;;;2.80;;
37205;SDS011;23099;42.636;23.198;2023-05-21T09:52:39;8.13;;;2.40;;
37205;SDS011;23099;42.636;23.198;2023-05-21T09:55:05;5.15;;;1.88;;
37205;SDS011;23099;42.636;23.198;2023-05-21T09:57:39;8.18;;;1.92;;
37205;SDS011;23099;42.636;23.198;2023-05-21T10:00:15;9.13;;;2.05;;
37205;SDS011;23099;42.636;23.198;2023-05-21T10:02:43;8.90;;;2.53;;
37205;SDS011;23099;42.636;23.198;2023-05-21T10:05:12;7.75;;;1.90;;
37205;SDS011;23099;42.636;23.198;2023-05-21T10:07:41;8.73;;;2.08;;
37205;SDS011;23099;42.636;23.198;2023-05-21T10:10:10;6.30;;;1.85;;
37205;SDS011;23099;42.636;23.198;2023-05-21T10:12:40;6.65;;;2.05;;
37205;SDS011;23099;42.636;23.198;2023-05-21T10:15:11;9.65;;;2.08;;
37205;SDS011;23099;42.636;23.198;2023-05-21T10:17:40;6.55;;;1.75;;
37205;SDS011;23099;42.636;23.198;2023-05-21T10:20:09;12.05;;;2.33;;
37205;SDS011;23099;42.636;23.198;2023-05-21T10:22:37;9.43;;;2.08;;
37205;SDS011;23099;42.636;23.198;2023-05-21T10:25:05;5.20;;;1.60;;
37205;SDS011;23099;42.636;23.198;2023-05-21T10:27:33;6.22;;;1.90;;
37205;SDS011;23099;42.636;23.198;2023-05-21T10:30:00;8.35;;;2.47;;
37205;SDS011;23099;42.636;23.198;2023-05-21T10:32:29;6.50;;;1.95;;
37205;SDS011;23099;42.636;23.198;2023-05-21T10:34:56;12.63;;;2.78;;
37205;SDS011;23099;42.636;23.198;2023-05-21T10:37:24;7.45;;;2.13;;
37205;SDS011;23099;42.636;23.198;2023-05-21T10:39:51;11.48;;;2.28;;
37205;SDS011;23099;42.636;23.198;2023-05-21T10:42:19;10.98;;;2.45;;
37205;SDS011;23099;42.636;23.198;2023-05-21T10:44:57;6.85;;;1.95;;
37205;SDS011;23099;42.636;23.198;2023-05-21T10:56:04;6.97;;;2.03;;
37205;SDS011;23099;42.636;23.198;2023-05-21T10:58:50;12.07;;;2.50;;
37205;SDS011;23099;42.636;23.198;2023-05-21T11:01:31;10.45;;;2.22;;
37205;SDS011;23099;42.636;23.198;2023-05-21T11:04:01;7.97;;;2.58;;
37205;SDS011;23099;42.636;23.198;2023-05-21T11:06:30;9.38;;;2.25;;
37205;SDS011;23099;42.636;23.198;2023-05-21T11:11:38;7.90;;;2.03;;
37205;SDS011;23099;42.636;23.198;2023-05-21T11:16:52;8.25;;;2.60;;
37205;SDS011;23099;42.636;23.198;2023-05-21T11:19:19;9.43;;;2.25;;
37205;SDS011;23099;42.636;23.198;2023-05-21T11:21:50;7.80;;;2.40;;
37205;SDS011;23099;42.636;23.198;2023-05-21T11:24:17;8.95;;;2.35;;
37205;SDS011;23099;42.636;23.198;2023-05-21T11:27:03;8.20;;;2.22;;
37205;SDS011;23099;42.636;23.198;2023-05-21T11:29:31;6.85;;;2.25;;
37205;SDS011;23099;42.636;23.198;2023-05-21T11:32:04;10.57;;;3.05;;
37205;SDS011;23099;42.636;23.198;2023-05-21T11:34:36;10.27;;;2.35;;
37205;SDS011;23099;42.636;23.198;2023-05-21T11:40:18;10.27;;;2.58;;
37205;SDS011;23099;42.636;23.198;2023-05-21T11:42:48;11.18;;;3.35;;
37205;SDS011;23099;42.636;23.198;2023-05-21T11:45:17;8.48;;;2.70;;
37205;SDS011;23099;42.636;23.198;2023-05-21T11:47:44;8.65;;;2.63;;
37205;SDS011;23099;42.636;23.198;2023-05-21T11:50:11;6.50;;;2.40;;
37205;SDS011;23099;42.636;23.198;2023-05-21T11:52:41;9.23;;;2.30;;
37205;SDS011;23099;42.636;23.198;2023-05-21T11:55:08;7.65;;;2.50;;
37205;SDS011;23099;42.636;23.198;2023-05-21T11:57:36;7.10;;;2.35;;
37205;SDS011;23099;42.636;23.198;2023-05-21T12:00:11;11.70;;;2.60;;
37205;SDS011;23099;42.636;23.198;2023-05-21T12:02:43;10.95;;;2.78;;
37205;SDS011;23099;42.636;23.198;2023-05-21T12:05:11;8.68;;;2.65;;
37205;SDS011;23099;42.636;23.198;2023-05-21T12:07:37;9.13;;;2.30;;
37205;SDS011;23099;42.636;23.198;2023-05-21T12:10:06;8.27;;;3.17;;
37205;SDS011;23099;42.636;23.198;2023-05-21T12:12:33;11.88;;;2.95;;
37205;SDS011;23099;42.636;23.198;2023-05-21T12:15:00;7.72;;;2.35;;
37205;SDS011;23099;42.636;23.198;2023-05-21T12:17:28;7.93;;;2.53;;
37205;SDS011;23099;42.636;23.198;2023-05-21T12:19:57;14.00;;;2.80;;
37205;SDS011;23099;42.636;23.198;2023-05-21T12:22:25;7.30;;;2.75;;
37205;SDS011;23099;42.636;23.198;2023-05-21T12:24:53;7.75;;;2.67;;
37205;SDS011;23099;42.636;23.198;2023-05-21T12:29:52;8.00;;;2.35;;
37205;SDS011;23099;42.636;23.198;2023-05-21T12:32:19;9.27;;;3.05;;
37205;SDS011;23099;42.636;23.198;2023-05-21T12:34:47;9.40;;;2.67;;
37205;SDS011;23099;42.636;23.198;2023-05-21T12:37:14;6.55;;;3.10;;
37205;SDS011;23099;42.636;23.198;2023-05-21T12:39:42;6.88;;;2.60;;
37205;SDS011;23099;42.636;23.198;2023-05-21T12:42:10;10.00;;;3.17;;
37205;SDS011;23099;42.636;23.198;2023-05-21T12:44:38;9.82;;;2.88;;
37205;SDS011;23099;42.636;23.198;2023-05-21T12:47:09;8.75;;;3.05;;
37205;SDS011;23099;42.636;23.198;2023-05-21T12:49:37;6.85;;;2.35;;
37205;SDS011;23099;42.636;23.198;2023-05-21T12:52:07;11.57;;;3.05;;
37205;SDS011;23099;42.636;23.198;2023-05-21T12:54:35;7.78;;;2.70;;
37205;SDS011;23099;42.636;23.198;2023-05-21T12:59:47;9.07;;;2.95;;
37205;SDS011;23099;42.636;23.198;2023-05-21T13:02:15;10.80;;;3.30;;
37205;SDS011;23099;42.636;23.198;2023-05-21T13:04:45;9.02;;;2.95;;
37205;SDS011;23099;42.636;23.198;2023-05-21T13:07:12;9.55;;;2.60;;
37205;SDS011;23099;42.636;23.198;2023-05-21T13:09:38;7.47;;;2.95;;
37205;SDS011;23099;42.636;23.198;2023-05-21T13:12:05;9.80;;;3.30;;
37205;SDS011;23099;42.636;23.198;2023-05-21T13:14:32;10.48;;;2.70;;
37205;SDS011;23099;42.636;23.198;2023-05-21T13:17:00;8.60;;;2.80;;
37205;SDS011;23099;42.636;23.198;2023-05-21T13:19:27;8.70;;;3.50;;
37205;SDS011;23099;42.636;23.198;2023-05-21T13:21:53;7.43;;;2.92;;
37205;SDS011;23099;42.636;23.198;2023-05-21T13:24:20;8.10;;;2.97;;
37205;SDS011;23099;42.636;23.198;2023-05-21T13:26:47;9.77;;;3.38;;
37205;SDS011;23099;42.636;23.198;2023-05-21T13:29:14;9.90;;;3.03;;
37205;SDS011;23099;42.636;23.198;2023-05-21T13:31:41;8.52;;;2.55;;
37205;SDS011;23099;42.636;23.198;2023-05-21T13:34:10;8.60;;;3.55;;
37205;SDS011;23099;42.636;23.198;2023-05-21T13:36:37;9.65;;;3.30;;
37205;SDS011;23099;42.636;23.198;2023-05-21T13:39:05;7.38;;;3.05;;
37205;SDS011;23099;42.636;23.198;2023-05-21T13:41:32;7.40;;;3.00;;
37205;SDS011;23099;42.636;23.198;2023-05-21T13:43:58;7.60;;;3.28;;
37205;SDS011;23099;42.636;23.198;2023-05-21T13:46:25;9.60;;;3.08;;
37205;SDS011;23099;42.636;23.198;2023-05-21T13:48:52;7.43;;;2.83;;
37205;SDS011;23099;42.636;23.198;2023-05-21T13:51:20;10.00;;;2.90;;
37205;SDS011;23099;42.636;23.198;2023-05-21T13:53:47;10.73;;;2.90;;
37205;SDS011;23099;42.636;23.198;2023-05-21T13:56:13;7.88;;;2.83;;
37205;SDS011;23099;42.636;23.198;2023-05-21T13:58:40;11.45;;;3.17;;
37205;SDS011;23099;42.636;23.198;2023-05-21T14:01:07;9.20;;;3.30;;
37205;SDS011;23099;42.636;23.198;2023-05-21T14:03:33;6.38;;;3.10;;
37205;SDS011;23099;42.636;23.198;2023-05-21T14:06:00;7.97;;;3.05;;
37205;SDS011;23099;42.636;23.198;2023-05-21T14:08:28;6.43;;;2.63;;
37205;SDS011;23099;42.636;23.198;2023-05-21T14:10:55;8.60;;;3.03;;
37205;SDS011;23099;42.636;23.198;2023-05-21T14:13:22;7.47;;;2.70;;
37205;SDS011;23099;42.636;23.198;2023-05-21T14:15:48;9.73;;;3.03;;
37205;SDS011;23099;42.636;23.198;2023-05-21T14:18:15;7.72;;;2.92;;
37205;SDS011;23099;42.636;23.198;2023-05-21T14:20:42;9.20;;;2.60;;
37205;SDS011;23099;42.636;23.198;2023-05-21T14:23:08;10.15;;;2.58;;
37205;SDS011;23099;42.636;23.198;2023-05-21T14:25:37;7.07;;;3.00;;
37205;SDS011;23099;42.636;23.198;2023-05-21T14:28:03;10.93;;;3.08;;
37205;SDS011;23099;42.636;23.198;2023-05-21T14:30:30;7.65;;;3.00;;
37205;SDS011;23099;42.636;23.198;2023-05-21T14:32:57;11.73;;;2.90;;
37205;SDS011;23099;42.636;23.198;2023-05-21T14:35:24;9.40;;;3.35;;
37205;SDS011;23099;42.636;23.198;2023-05-21T14:37:51;9.68;;;3.00;;
37205;SDS011;23099;42.636;23.198;2023-05-21T14:40:18;9.30;;;2.90;;
37205;SDS011;23099;42.636;23.198;2023-05-21T14:42:46;10.75;;;2.97;;
37205;SDS011;23099;42.636;23.198;2023-05-21T14:45:12;8.05;;;2.72;;
37205;SDS011;23099;42.636;23.198;2023-05-21T14:47:39;7.70;;;3.10;;
37205;SDS011;23099;42.636;23.198;2023-05-21T14:50:06;8.32;;;2.92;;
37205;SDS011;23099;42.636;23.198;2023-05-21T14:52:33;8.85;;;2.92;;
37205;SDS011;23099;42.636;23.198;2023-05-21T14:55:00;6.75;;;2.45;;
37205;SDS011;23099;42.636;23.198;2023-05-21T14:57:27;10.00;;;2.58;;
37205;SDS011;23099;42.636;23.198;2023-05-21T14:59:55;10.13;;;2.58;;
37205;SDS011;23099;42.636;23.198;2023-05-21T15:02:21;12.60;;;2.50;;
37205;SDS011;23099;42.636;23.198;2023-05-21T15:04:48;7.78;;;2.40;;
37205;SDS011;23099;42.636;23.198;2023-05-21T15:07:15;9.35;;;2.40;;
37205;SDS011;23099;42.636;23.198;2023-05-21T15:09:41;9.25;;;2.45;;